createdAt,value
2018-02-02T00:00:07.455Z,39.20
2018-02-02T00:02:35.220Z,32.10
2018-02-02T00:05:03.091Z,26.43
2018-02-02T00:07:30.862Z,35.60
2018-02-02T00:09:58.696Z,30.53
2018-02-02T00:12:26.429Z,37.20
2018-02-02T00:14:54.232Z,29.93
2018-02-02T00:17:22.089Z,32.47
2018-02-02T00:19:49.899Z,39.03
2018-02-02T00:22:17.825Z,35.97
2018-02-02T00:24:45.607Z,34.47
2018-02-02T00:27:13.474Z,33.90
2018-02-02T00:29:41.661Z,28.50
2018-02-02T00:32:09.519Z,28.10
2018-02-02T00:34:37.581Z,25.07
2018-02-02T00:37:05.357Z,27.40
2018-02-02T00:39:33.329Z,24.37
2018-02-02T00:42:01.261Z,24.40
2018-02-02T00:44:29.165Z,24.23
2018-02-02T00:46:57.124Z,25.03
2018-02-02T00:49:25.088Z,27.50
2018-02-02T00:51:58.590Z,29.53
2018-02-02T00:54:26.556Z,32.33
2018-02-02T00:56:54.402Z,33.90
2018-02-02T00:59:22.163Z,26.80
2018-02-02T01:01:49.943Z,31.97
2018-02-02T01:04:17.918Z,31.83
2018-02-02T01:06:46.500Z,29.37
2018-02-02T01:09:14.274Z,35.23
2018-02-02T01:11:42.473Z,31.37
2018-02-02T01:14:11.237Z,27.33
2018-02-02T01:16:39.502Z,31.53
2018-02-02T01:19:07.466Z,31.57
2018-02-02T01:21:35.234Z,30.53
2018-02-02T01:24:03.101Z,40.67
2018-02-02T01:26:30.845Z,33.67
2018-02-02T01:28:58.712Z,43.37
2018-02-02T01:31:26.578Z,31.97
2018-02-02T01:33:55.469Z,44.57
2018-02-02T01:36:23.256Z,40.37
2018-02-02T01:38:51.202Z,58.13
2018-02-02T01:41:19.049Z,42.00
2018-02-02T01:43:47.158Z,33.40
2018-02-02T01:46:15.025Z,40.13
2018-02-02T01:48:43.566Z,29.03
2018-02-02T01:51:11.556Z,39.13
2018-02-02T01:53:39.349Z,33.37
2018-02-02T01:56:07.211Z,28.33
2018-02-02T01:58:35.049Z,31.90
2018-02-02T02:01:02.947Z,30.60
2018-02-02T02:03:30.787Z,26.90
2018-02-02T02:05:58.754Z,33.60
2018-02-02T02:08:26.544Z,28.50
2018-02-02T02:10:54.487Z,31.87
2018-02-02T02:13:22.371Z,35.10
2018-02-02T02:15:50.250Z,28.40
2018-02-02T02:18:18.188Z,26.10
2018-02-02T02:20:46.074Z,24.20
2018-02-02T02:23:14.025Z,22.97
2018-02-02T02:25:42.123Z,30.17
2018-02-02T02:28:11.698Z,29.40
2018-02-02T02:30:39.788Z,22.77
2018-02-02T02:33:08.351Z,25.67
2018-02-02T02:35:36.218Z,21.70
2018-02-02T02:38:04.293Z,25.93
2018-02-02T02:40:32.072Z,18.80
2018-02-02T02:43:00.032Z,22.97
2018-02-02T02:45:27.907Z,21.10
2018-02-02T02:47:56.256Z,23.47
2018-02-02T02:50:24.050Z,23.60
2018-02-02T02:52:51.851Z,20.60
2018-02-02T02:55:20.357Z,23.10
2018-02-02T02:57:48.247Z,23.80
2018-02-02T03:00:16.222Z,21.87
2018-02-02T03:02:44.130Z,23.33
2018-02-02T03:05:12.699Z,21.70
2018-02-02T03:07:40.487Z,25.00
2018-02-02T03:10:09.209Z,19.90
2018-02-02T03:12:37.228Z,23.10
2018-02-02T03:15:05.797Z,21.20
2018-02-02T03:17:34.294Z,21.70
2018-02-02T03:20:02.132Z,24.97
2018-02-02T03:22:30.006Z,23.23
2018-02-02T03:24:58.076Z,20.13
2018-02-02T03:27:26.037Z,18.53
2018-02-02T03:29:53.808Z,15.33
2018-02-02T03:32:21.650Z,12.10
2018-02-02T03:34:49.538Z,11.67
2018-02-02T03:37:17.407Z,12.60
2018-02-02T03:39:45.234Z,13.23
2018-02-02T03:42:13.031Z,14.83
2018-02-02T03:44:40.959Z,13.90
2018-02-02T03:47:09.169Z,12.67
2018-02-02T03:49:37.049Z,14.80
2018-02-02T03:52:04.811Z,14.40
2018-02-02T03:54:32.778Z,17.33
2018-02-02T03:57:00.550Z,17.60
2018-02-02T03:59:28.501Z,15.17
2018-02-02T04:01:56.356Z,15.60
2018-02-02T04:04:24.085Z,15.20
2018-02-02T04:06:51.905Z,15.20
2018-02-02T04:09:19.852Z,13.37
2018-02-02T04:11:47.957Z,20.10
2018-02-02T04:14:15.791Z,14.60
2018-02-02T04:16:43.656Z,19.37
2018-02-02T04:19:11.522Z,17.03
2018-02-02T04:21:39.469Z,22.30
2018-02-02T04:24:07.282Z,22.30
2018-02-02T04:26:35.120Z,22.40
2018-02-02T04:29:02.994Z,22.23
2018-02-02T04:31:30.772Z,23.33
2018-02-02T04:33:58.736Z,17.63
2018-02-02T04:36:26.605Z,20.13
2018-02-02T04:38:54.570Z,16.30
2018-02-02T04:41:22.542Z,17.50
2018-02-02T04:43:50.409Z,18.27
2018-02-02T04:46:18.434Z,18.00
2018-02-02T04:48:46.234Z,22.57
2018-02-02T04:51:14.111Z,17.73
2018-02-02T04:53:42.400Z,21.20
2018-02-02T04:56:11.381Z,28.00
2018-02-02T04:58:39.253Z,23.47
2018-02-02T05:01:07.130Z,22.97
2018-02-02T05:03:35.665Z,27.80
2018-02-02T05:06:03.457Z,28.80
2018-02-02T05:08:31.226Z,22.90
2018-02-02T05:10:59.380Z,29.23
2018-02-02T05:13:27.352Z,28.50
2018-02-02T05:15:55.144Z,31.30
2018-02-02T05:18:23.313Z,21.07
2018-02-02T05:20:51.165Z,21.40
2018-02-02T05:23:18.927Z,27.23
2018-02-02T05:25:46.903Z,25.43
2018-02-02T05:28:14.852Z,31.03
2018-02-02T05:30:42.719Z,25.70
2018-02-02T05:33:10.816Z,31.23
2018-02-02T05:35:38.674Z,24.73
2018-02-02T05:38:06.436Z,26.53
2018-02-02T05:40:34.185Z,29.63
2018-02-02T05:43:01.923Z,27.83
2018-02-02T05:45:29.775Z,33.20
2018-02-02T05:47:58.267Z,28.80
2018-02-02T05:50:26.166Z,36.20
2018-02-02T05:52:54.255Z,26.47
2018-02-02T05:55:22.210Z,23.00
2018-02-02T05:57:50.192Z,32.07
2018-02-02T06:00:18.238Z,28.90
2018-02-02T06:02:46.210Z,34.87
2018-02-02T06:05:13.994Z,39.13
2018-02-02T06:07:41.959Z,33.63
2018-02-02T06:10:09.807Z,36.23
2018-02-02T06:12:37.590Z,39.43
2018-02-02T06:15:05.463Z,34.00
2018-02-02T06:17:33.325Z,42.20
2018-02-02T06:20:01.262Z,42.77
2018-02-02T06:22:29.136Z,45.40
2018-02-02T06:24:57.007Z,46.20
2018-02-02T06:27:24.750Z,44.43
2018-02-02T06:29:52.671Z,39.40
2018-02-02T06:32:21.442Z,37.40
2018-02-02T06:34:49.428Z,46.00
2018-02-02T06:37:17.278Z,51.57
2018-02-02T06:39:45.228Z,37.40
2018-02-02T06:42:13.097Z,38.57
2018-02-02T06:44:41.267Z,47.77
2018-02-02T06:47:09.249Z,45.13
2018-02-02T06:49:37.003Z,48.63
2018-02-02T06:52:04.780Z,31.60
2018-02-02T06:54:32.659Z,33.07
2018-02-02T06:57:00.526Z,34.13
2018-02-02T06:59:28.378Z,38.33
2018-02-02T07:01:56.450Z,51.70
2018-02-02T07:04:24.812Z,45.40
2018-02-02T07:06:52.596Z,40.07
2018-02-02T07:09:20.545Z,34.20
2018-02-02T07:11:48.513Z,54.37
2018-02-02T07:14:16.297Z,40.60
2018-02-02T07:16:44.268Z,35.67
2018-02-02T07:19:12.137Z,55.90
2018-02-02T07:21:40.122Z,42.17
2018-02-02T07:24:08.168Z,36.90
2018-02-02T07:26:36.958Z,37.03
2018-02-02T07:29:04.934Z,54.63
2018-02-02T07:31:32.897Z,39.00
2018-02-02T07:34:00.733Z,36.23
2018-02-02T07:36:28.519Z,48.73
2018-02-02T07:38:56.398Z,46.90
2018-02-02T07:41:24.267Z,34.33
2018-02-02T07:43:52.045Z,50.83
2018-02-02T07:46:19.874Z,55.07
2018-02-02T07:48:47.735Z,53.07
2018-02-02T07:51:15.516Z,47.80
2018-02-02T07:53:43.370Z,49.13
2018-02-02T07:56:11.174Z,60.23
2018-02-02T07:58:38.985Z,42.20
2018-02-02T08:01:24.700Z,55.40
2018-02-02T08:03:52.476Z,44.00
2018-02-02T08:06:20.328Z,56.53
2018-02-02T08:08:48.177Z,48.00
2018-02-02T08:11:16.065Z,56.50
2018-02-02T08:13:43.888Z,58.40
2018-02-02T08:16:11.670Z,47.60
2018-02-02T08:18:39.462Z,57.93
2018-02-02T08:21:07.409Z,61.77
2018-02-02T08:23:35.181Z,60.07
2018-02-02T08:26:03.102Z,57.33
2018-02-02T08:28:31.643Z,57.73
2018-02-02T08:30:59.502Z,52.00
2018-02-02T08:33:27.577Z,59.93
2018-02-02T08:35:55.439Z,52.50
2018-02-02T08:38:23.306Z,56.40
2018-02-02T08:40:51.176Z,47.43
2018-02-02T08:43:19.009Z,53.90
2018-02-02T08:45:46.888Z,63.63
2018-02-02T08:48:14.707Z,57.13
2018-02-02T08:50:43.226Z,67.13
2018-02-02T08:53:11.013Z,51.70
2018-02-02T08:55:38.896Z,57.93
2018-02-02T08:58:06.756Z,55.87
2018-02-02T09:00:34.700Z,52.47
2018-02-02T09:03:02.509Z,60.87
2018-02-02T09:05:31.189Z,50.97
2018-02-02T09:07:59.039Z,53.33
2018-02-02T09:10:27.092Z,62.63
2018-02-02T09:12:54.989Z,55.30
2018-02-02T09:15:22.742Z,54.40
2018-02-02T09:17:50.702Z,58.30
2018-02-02T09:20:18.552Z,66.33
2018-02-02T09:22:46.335Z,65.77
2018-02-02T09:25:14.286Z,74.43
2018-02-02T09:27:41.769Z,65.97
2018-02-02T09:30:09.634Z,60.00
2018-02-02T09:32:39.034Z,53.73
2018-02-02T09:35:07.087Z,58.30
2018-02-02T09:37:34.890Z,51.30
2018-02-02T09:40:03.664Z,54.70
2018-02-02T09:42:31.522Z,50.73
2018-02-02T09:44:59.268Z,59.47
2018-02-02T09:47:27.158Z,47.90
2018-02-02T09:49:55.135Z,42.80
2018-02-02T09:52:23.100Z,41.77
2018-02-02T09:54:50.966Z,41.10
2018-02-02T09:57:18.898Z,36.20
2018-02-02T09:59:46.996Z,48.80
2018-02-02T10:02:14.942Z,42.70
2018-02-02T10:04:42.730Z,38.40
2018-02-02T10:07:10.473Z,35.50
2018-02-02T10:09:38.353Z,52.27
2018-02-02T10:12:06.137Z,51.43
2018-02-02T10:14:33.893Z,39.27
2018-02-02T10:17:01.751Z,26.93
2018-02-02T10:19:29.526Z,36.77
2018-02-02T10:21:57.399Z,28.63
2018-02-02T10:24:25.279Z,35.70
2018-02-02T10:26:53.809Z,31.43
2018-02-02T10:29:21.595Z,36.20
2018-02-02T10:31:49.363Z,55.77
2018-02-02T10:34:17.240Z,32.50
2018-02-02T10:36:45.196Z,23.47
2018-02-02T10:39:13.063Z,51.50
2018-02-02T10:41:41.132Z,20.60
2018-02-02T10:44:08.984Z,16.67
2018-02-02T10:46:36.880Z,16.30
2018-02-02T10:49:05.658Z,16.30
2018-02-02T10:51:33.402Z,16.90
2018-02-02T10:54:01.505Z,24.13
2018-02-02T10:56:29.257Z,14.33
2018-02-02T10:58:57.250Z,25.90
2018-02-02T11:01:31.384Z,17.40
2018-02-02T11:03:59.310Z,36.27
2018-02-02T11:06:27.255Z,28.80
2018-02-02T11:08:55.258Z,24.07
2018-02-02T11:11:23.230Z,26.80
2018-02-02T11:13:51.207Z,22.00
2018-02-02T11:16:21.285Z,20.87
2018-02-02T11:18:49.254Z,20.40
2018-02-02T11:21:17.245Z,21.00
2018-02-02T11:23:45.293Z,22.50
2018-02-02T11:26:14.283Z,24.30
2018-02-02T11:28:42.687Z,21.50
2018-02-02T11:31:12.799Z,18.03
2018-02-02T11:33:41.193Z,21.43
2018-02-02T11:36:09.539Z,18.37
2018-02-02T11:38:37.827Z,18.93
2018-02-02T11:41:06.047Z,19.73
2018-02-02T11:43:41.563Z,20.93
2018-02-02T11:46:16.434Z,18.43
2018-02-02T11:48:44.985Z,19.27
2018-02-02T11:51:13.773Z,20.60
2018-02-02T11:53:50.346Z,22.13
2018-02-02T11:56:19.098Z,18.23
2018-02-02T11:58:46.937Z,22.13
2018-02-02T12:01:18.824Z,18.90
2018-02-02T12:03:46.703Z,20.60
2018-02-02T12:06:14.652Z,19.10
2018-02-02T12:08:44.883Z,15.00
2018-02-02T12:11:13.355Z,11.77
2018-02-02T12:13:41.525Z,10.93
2018-02-02T12:16:09.410Z,18.43
2018-02-02T12:18:37.407Z,9.77
2018-02-02T12:21:09.662Z,10.07
2018-02-02T12:23:53.204Z,6.27
2018-02-02T12:26:40.942Z,7.10
2018-02-02T12:29:25.465Z,7.70
2018-02-02T12:32:10.120Z,6.10
2018-02-02T12:34:52.848Z,7.13
2018-02-02T12:37:20.755Z,5.70
2018-02-02T12:39:49.350Z,3.63
2018-02-02T12:42:18.076Z,9.50
2018-02-02T12:44:46.041Z,6.30
2018-02-02T12:47:13.820Z,5.13
2018-02-02T12:52:38.858Z,6.40
2018-02-02T12:55:06.791Z,7.63
2018-02-02T12:57:34.974Z,8.30
2018-02-02T13:00:02.874Z,5.53
2018-02-02T13:02:30.904Z,5.80
2018-02-02T13:04:58.694Z,7.97
2018-02-02T13:07:26.536Z,6.17
2018-02-02T13:10:00.138Z,8.93
2018-02-02T13:12:33.474Z,9.03
2018-02-02T13:15:01.826Z,10.27
2018-02-02T13:17:36.944Z,8.27
2018-02-02T13:20:04.844Z,6.43
2018-02-02T13:22:32.698Z,3.60
2018-02-02T13:25:01.793Z,4.07
2018-02-02T13:27:29.741Z,3.67
2018-02-02T13:29:57.622Z,5.27
2018-02-02T13:32:25.575Z,5.27
2018-02-02T13:34:53.542Z,2.60
2018-02-02T13:37:21.616Z,12.30
2018-02-02T13:39:49.583Z,2.07
2018-02-02T13:42:17.475Z,3.97
2018-02-02T13:44:45.530Z,4.33
2018-02-02T13:47:13.490Z,3.60
2018-02-02T13:49:41.756Z,9.23
2018-02-02T13:52:09.640Z,4.97
2018-02-02T13:54:37.638Z,3.40
2018-02-02T13:57:05.603Z,8.37
2018-02-02T13:59:33.352Z,6.20
2018-02-02T14:02:01.218Z,6.50
2018-02-02T14:04:29.184Z,2.80
2018-02-02T14:06:58.602Z,5.90
2018-02-02T14:09:26.746Z,7.10
2018-02-02T14:11:54.523Z,8.80
2018-02-02T14:14:22.390Z,3.27
2018-02-02T14:16:50.265Z,3.97
2018-02-02T14:19:18.129Z,4.73
2018-02-02T14:21:46.130Z,2.80
2018-02-02T14:24:14.859Z,2.67
2018-02-02T14:26:42.711Z,5.83
2018-02-02T14:29:10.544Z,5.43
2018-02-02T14:31:39.206Z,4.30
2018-02-02T14:34:07.061Z,5.43
2018-02-02T14:36:35.119Z,2.93
2018-02-02T14:39:02.990Z,7.33
2018-02-02T14:41:30.922Z,11.87
2018-02-02T14:43:58.842Z,3.53
2018-02-02T14:46:27.310Z,4.20
2018-02-02T14:48:55.096Z,3.77
2018-02-02T14:51:23.035Z,3.43
2018-02-02T14:53:50.941Z,3.90
2018-02-02T14:56:18.703Z,7.13
2018-02-02T14:58:46.553Z,4.77
2018-02-02T15:01:14.450Z,3.70
2018-02-02T15:03:43.115Z,2.47
2018-02-02T15:06:10.976Z,9.70
2018-02-02T15:08:38.718Z,4.20
2018-02-02T15:11:06.698Z,4.83
2018-02-02T15:13:35.101Z,2.77
2018-02-02T15:16:03.977Z,2.70
2018-02-02T15:18:31.844Z,2.97
2018-02-02T15:20:59.613Z,5.00
2018-02-02T15:23:29.315Z,3.17
2018-02-02T15:25:58.317Z,3.07
2018-02-02T15:28:26.174Z,3.77
2018-02-02T15:30:54.764Z,4.80
2018-02-02T15:33:22.704Z,5.07
2018-02-02T15:35:50.673Z,9.07
2018-02-02T15:38:18.545Z,5.70
2018-02-02T15:40:46.317Z,3.33
2018-02-02T15:43:14.389Z,2.80
2018-02-02T15:45:42.590Z,4.27
2018-02-02T15:48:11.724Z,4.83
2018-02-02T15:50:40.187Z,6.27
2018-02-02T15:53:08.122Z,4.07
2018-02-02T15:55:36.704Z,16.00
2018-02-02T15:58:04.649Z,4.50
2018-02-02T16:00:32.612Z,4.10
2018-02-02T16:03:00.480Z,3.23
2018-02-02T16:05:28.457Z,5.43
2018-02-02T16:07:56.342Z,4.10
2018-02-02T16:10:24.118Z,5.63
2018-02-02T16:12:52.150Z,7.30
2018-02-02T16:15:20.056Z,4.53
2018-02-02T16:17:48.094Z,10.30
2018-02-02T16:20:16.056Z,5.97
2018-02-02T16:22:44.062Z,3.23
2018-02-02T16:25:12.200Z,7.40
2018-02-02T16:27:40.256Z,6.10
2018-02-02T16:30:08.366Z,10.23
2018-02-02T16:32:36.420Z,6.90
2018-02-02T16:35:04.379Z,23.63
2018-02-02T16:37:32.222Z,12.33
2018-02-02T16:40:00.243Z,12.83
2018-02-02T16:42:28.335Z,12.43
2018-02-02T16:44:56.978Z,8.53
2018-02-02T16:47:24.960Z,7.30
2018-02-02T16:49:53.124Z,7.67
2018-02-02T16:52:21.181Z,5.67
2018-02-02T16:54:50.287Z,5.90
2018-02-02T16:57:18.148Z,13.90
2018-02-02T16:59:46.120Z,7.13
2018-02-02T17:02:14.122Z,6.07
2018-02-02T17:04:42.746Z,6.40
2018-02-02T17:07:10.677Z,21.43
2018-02-02T17:09:38.709Z,23.43
2018-02-02T17:12:06.675Z,19.30
2018-02-02T17:14:34.570Z,12.00
2018-02-02T17:17:02.384Z,24.47
2018-02-02T17:19:30.480Z,22.40
2018-02-02T17:21:58.283Z,13.13
2018-02-02T17:24:26.515Z,21.43
2018-02-02T17:26:54.423Z,17.37
2018-02-02T17:29:22.320Z,11.27
2018-02-02T17:31:50.320Z,23.00
2018-02-02T17:34:18.115Z,22.63
2018-02-02T17:36:46.793Z,15.77
2018-02-02T17:39:15.933Z,20.60
2018-02-02T17:41:44.789Z,21.70
2018-02-02T17:44:13.399Z,25.23
2018-02-02T17:46:41.546Z,21.50
2018-02-02T17:49:09.625Z,17.00
2018-02-02T17:51:37.735Z,18.50
2018-02-02T17:54:05.727Z,23.30
2018-02-02T17:56:33.799Z,21.73
2018-02-02T17:59:01.672Z,26.13
2018-02-02T18:01:40.588Z,18.13
2018-02-02T18:04:08.479Z,17.40
2018-02-02T18:06:36.343Z,31.47
2018-02-02T18:09:04.521Z,21.97
2018-02-02T18:11:32.390Z,18.20
2018-02-02T18:14:00.346Z,24.43
2018-02-02T18:16:28.427Z,16.67
2018-02-02T18:18:56.290Z,26.80
2018-02-02T18:21:24.157Z,24.40
2018-02-02T18:23:52.227Z,22.97
2018-02-02T18:26:21.422Z,33.63
2018-02-02T18:28:49.479Z,26.03
2018-02-02T18:31:17.264Z,22.30
2018-02-02T18:33:45.130Z,23.00
2018-02-02T18:36:13.283Z,24.23
2018-02-02T18:38:41.482Z,17.13
2018-02-02T18:41:09.364Z,18.30
2018-02-02T18:43:38.215Z,24.83
2018-02-02T18:46:08.022Z,36.47
2018-02-02T18:48:36.300Z,33.97
2018-02-02T18:51:06.184Z,28.53
2018-02-02T18:53:39.142Z,36.83
2018-02-02T18:56:09.077Z,30.10
2018-02-02T18:58:38.723Z,31.87
2018-02-02T19:01:08.231Z,24.40
2018-02-02T19:03:36.603Z,21.07
2018-02-02T19:06:08.747Z,22.47
2018-02-02T19:08:41.564Z,19.63
2018-02-02T19:11:11.482Z,14.17
2018-02-02T19:13:41.792Z,11.00
2018-02-02T19:16:11.563Z,12.27
2018-02-02T19:18:43.304Z,19.70
2018-02-02T19:21:11.573Z,16.00
2018-02-02T19:23:46.984Z,17.20
2018-02-02T19:26:17.469Z,10.10
2018-02-02T19:28:49.522Z,19.73
2018-02-02T19:31:19.538Z,26.23
2018-02-02T19:33:49.657Z,16.63
2018-02-02T19:36:19.088Z,16.57
2018-02-02T19:38:52.344Z,16.13
2018-02-02T19:41:22.265Z,19.97
2018-02-02T19:43:52.624Z,20.47
2018-02-02T19:46:23.464Z,24.37
2018-02-02T19:48:52.671Z,14.57
2018-02-02T19:51:23.042Z,18.23
2018-02-02T19:53:54.177Z,16.90
2018-02-02T19:56:24.601Z,16.87
2018-02-02T19:58:59.121Z,11.93
2018-02-02T20:01:30.131Z,23.37
2018-02-02T20:03:58.938Z,16.50
2018-02-02T20:06:27.848Z,19.07
2018-02-02T20:08:58.731Z,17.03
2018-02-02T20:14:10.084Z,18.30
2018-02-02T20:16:40.483Z,22.37
2018-02-02T20:19:10.230Z,18.73
2018-02-02T20:21:42.756Z,15.53
2018-02-02T20:24:15.080Z,14.93
2018-02-02T20:26:47.331Z,16.00
2018-02-02T20:31:56.034Z,15.07
2018-02-02T20:34:26.759Z,17.60
2018-02-02T20:36:58.789Z,19.40
2018-02-02T20:39:29.139Z,19.43
2018-02-02T20:41:57.949Z,15.97
2018-02-02T20:44:26.615Z,15.17
2018-02-02T20:47:00.405Z,12.57
2018-02-02T20:49:28.580Z,14.63
2018-02-02T20:51:56.797Z,17.00
2018-02-02T20:54:25.398Z,12.37
2018-02-02T20:56:54.511Z,14.50
2018-02-02T20:59:23.452Z,13.47
2018-02-02T21:01:51.524Z,18.20
2018-02-02T21:04:19.410Z,13.00
2018-02-02T21:06:47.378Z,13.87
2018-02-02T21:09:15.252Z,13.93
2018-02-02T21:11:43.376Z,11.40
2018-02-02T21:14:11.804Z,16.53
2018-02-02T21:16:40.120Z,11.07
2018-02-02T21:19:08.228Z,12.20
2018-02-02T21:21:36.089Z,11.97
2018-02-02T21:24:03.957Z,10.37
2018-02-02T21:26:31.947Z,12.13
2018-02-02T21:28:59.821Z,12.77
2018-02-02T21:31:27.667Z,13.00
2018-02-02T21:33:55.601Z,16.50
2018-02-02T21:36:23.510Z,17.37
2018-02-02T21:38:51.386Z,17.80
2018-02-02T21:41:19.932Z,16.73
2018-02-02T21:43:47.829Z,14.50
2018-02-02T21:46:15.777Z,14.70
2018-02-02T21:48:43.565Z,11.40
2018-02-02T21:51:11.853Z,15.77
2018-02-02T21:53:39.938Z,13.70
2018-02-02T21:56:08.580Z,17.20
2018-02-02T21:58:37.067Z,11.73
2018-02-02T22:01:06.088Z,15.80
2018-02-02T22:03:33.951Z,18.80
2018-02-02T22:06:01.782Z,18.13
2018-02-02T22:08:29.570Z,13.67
2018-02-02T22:10:58.349Z,8.00
2018-02-02T22:13:26.549Z,9.70
2018-02-02T22:15:54.483Z,9.60
2018-02-02T22:18:22.460Z,11.53
2018-02-02T22:20:50.427Z,13.97
2018-02-02T22:23:18.289Z,11.17
2018-02-02T22:25:46.167Z,12.30
2018-02-02T22:28:14.192Z,11.70
2018-02-02T22:30:42.205Z,13.70
2018-02-02T22:33:10.299Z,13.80
2018-02-02T22:35:40.164Z,12.33
2018-02-02T22:38:08.050Z,10.20
2018-02-02T22:40:35.928Z,17.03
2018-02-02T22:43:03.702Z,12.43
2018-02-02T22:45:32.312Z,12.63
2018-02-02T22:48:00.339Z,13.27
2018-02-02T22:50:28.518Z,11.50
2018-02-02T22:52:56.293Z,13.20
2018-02-02T22:55:24.224Z,13.60
2018-02-02T22:57:52.093Z,12.67
2018-02-02T23:00:20.465Z,11.97
2018-02-02T23:02:49.278Z,8.43
2018-02-02T23:05:17.330Z,9.40
2018-02-02T23:07:45.299Z,8.13
2018-02-02T23:10:13.062Z,8.97
2018-02-02T23:12:40.964Z,12.40
2018-02-02T23:15:08.732Z,7.23
2018-02-02T23:17:36.481Z,6.90
2018-02-02T23:20:04.426Z,7.13
2018-02-02T23:22:32.289Z,8.23
2018-02-02T23:25:00.094Z,6.53
2018-02-02T23:27:28.032Z,7.67
2018-02-02T23:29:55.817Z,9.27
2018-02-02T23:32:23.665Z,7.00
2018-02-02T23:34:51.622Z,5.40
2018-02-02T23:37:19.505Z,6.97
2018-02-02T23:39:47.374Z,6.20
2018-02-02T23:42:15.757Z,6.10
2018-02-02T23:44:43.490Z,7.00
2018-02-02T23:47:11.879Z,7.77
2018-02-02T23:49:40.174Z,7.67
2018-02-02T23:52:08.327Z,5.90
2018-02-02T23:54:36.605Z,5.40
2018-02-02T23:57:04.484Z,6.90
2018-02-02T23:59:32.454Z,7.60
